sensor_id;sensor_type;location;lat;lon;timestamp;P1;durP1;ratioP1;P2;durP2;ratioP2
34573;SDS011;20809;49.594;8.734;2022-11-20T00:01:38;34.25;;;17.77;;
34573;SDS011;20809;49.594;8.734;2022-11-20T00:04:39;34.60;;;17.55;;
34573;SDS011;20809;49.594;8.734;2022-11-20T00:07:40;28.50;;;14.68;;
34573;SDS011;20809;49.594;8.734;2022-11-20T00:10:41;29.17;;;15.50;;
34573;SDS011;20809;49.594;8.734;2022-11-20T00:13:42;22.10;;;12.70;;
34573;SDS011;20809;49.594;8.734;2022-11-20T00:16:43;21.83;;;12.02;;
34573;SDS011;20809;49.594;8.734;2022-11-20T00:22:50;20.10;;;11.45;;
34573;SDS011;20809;49.594;8.734;2022-11-20T00:28:55;17.63;;;9.87;;
34573;SDS011;20809;49.594;8.734;2022-11-20T00:32:00;20.98;;;10.40;;
34573;SDS011;20809;49.594;8.734;2022-11-20T00:35:01;18.13;;;10.82;;
34573;SDS011;20809;49.594;8.734;2022-11-20T00:38:01;17.05;;;10.05;;
34573;SDS011;20809;49.594;8.734;2022-11-20T00:41:03;18.13;;;10.57;;
34573;SDS011;20809;49.594;8.734;2022-11-20T00:44:05;17.63;;;10.35;;
34573;SDS011;20809;49.594;8.734;2022-11-20T00:47:06;16.60;;;10.02;;
34573;SDS011;20809;49.594;8.734;2022-11-20T00:50:07;20.20;;;11.25;;
34573;SDS011;20809;49.594;8.734;2022-11-20T00:53:08;14.82;;;9.88;;
34573;SDS011;20809;49.594;8.734;2022-11-20T00:56:15;16.85;;;9.82;;
34573;SDS011;20809;49.594;8.734;2022-11-20T00:59:18;17.38;;;8.85;;
34573;SDS011;20809;49.594;8.734;2022-11-20T01:02:19;13.60;;;8.38;;
34573;SDS011;20809;49.594;8.734;2022-11-20T01:05:19;16.27;;;9.50;;
34573;SDS011;20809;49.594;8.734;2022-11-20T01:08:20;12.68;;;8.00;;
34573;SDS011;20809;49.594;8.734;2022-11-20T01:11:22;11.77;;;7.53;;
34573;SDS011;20809;49.594;8.734;2022-11-20T01:14:24;11.02;;;7.22;;
34573;SDS011;20809;49.594;8.734;2022-11-20T01:17:25;11.48;;;6.63;;
34573;SDS011;20809;49.594;8.734;2022-11-20T01:20:25;10.57;;;6.68;;
34573;SDS011;20809;49.594;8.734;2022-11-20T01:23:26;9.93;;;6.90;;
34573;SDS011;20809;49.594;8.734;2022-11-20T01:26:33;8.32;;;6.32;;
34573;SDS011;20809;49.594;8.734;2022-11-20T01:29:35;11.18;;;6.20;;
34573;SDS011;20809;49.594;8.734;2022-11-20T01:32:36;7.18;;;5.78;;
34573;SDS011;20809;49.594;8.734;2022-11-20T01:35:36;9.82;;;5.47;;
34573;SDS011;20809;49.594;8.734;2022-11-20T01:38:37;6.90;;;4.72;;
34573;SDS011;20809;49.594;8.734;2022-11-20T01:41:38;6.38;;;4.70;;
34573;SDS011;20809;49.594;8.734;2022-11-20T01:44:59;7.68;;;5.82;;
34573;SDS011;20809;49.594;8.734;2022-11-20T01:48:01;6.80;;;4.30;;
34573;SDS011;20809;49.594;8.734;2022-11-20T01:51:02;7.25;;;5.07;;
34573;SDS011;20809;49.594;8.734;2022-11-20T01:54:05;7.55;;;5.18;;
34573;SDS011;20809;49.594;8.734;2022-11-20T01:59:07;9.32;;;5.53;;
34573;SDS011;20809;49.594;8.734;2022-11-20T02:02:10;7.40;;;4.65;;
34573;SDS011;20809;49.594;8.734;2022-11-20T02:05:32;8.05;;;5.15;;
34573;SDS011;20809;49.594;8.734;2022-11-20T02:08:43;9.30;;;5.25;;
34573;SDS011;20809;49.594;8.734;2022-11-20T02:11:44;6.50;;;4.63;;
34573;SDS011;20809;49.594;8.734;2022-11-20T02:14:45;6.75;;;4.97;;
34573;SDS011;20809;49.594;8.734;2022-11-20T02:17:45;8.55;;;5.72;;
34573;SDS011;20809;49.594;8.734;2022-11-20T02:20:47;8.60;;;6.00;;
34573;SDS011;20809;49.594;8.734;2022-11-20T02:24:00;10.50;;;6.53;;
34573;SDS011;20809;49.594;8.734;2022-11-20T02:27:13;9.73;;;6.45;;
34573;SDS011;20809;49.594;8.734;2022-11-20T02:30:15;9.90;;;6.18;;
34573;SDS011;20809;49.594;8.734;2022-11-20T02:33:16;10.43;;;7.18;;
34573;SDS011;20809;49.594;8.734;2022-11-20T02:36:17;13.88;;;7.75;;
34573;SDS011;20809;49.594;8.734;2022-11-20T02:39:18;10.45;;;6.55;;
34573;SDS011;20809;49.594;8.734;2022-11-20T02:42:20;12.05;;;6.85;;
34573;SDS011;20809;49.594;8.734;2022-11-20T02:45:21;11.80;;;7.35;;
34573;SDS011;20809;49.594;8.734;2022-11-20T02:48:25;11.45;;;6.97;;
34573;SDS011;20809;49.594;8.734;2022-11-20T02:51:26;11.90;;;8.52;;
34573;SDS011;20809;49.594;8.734;2022-11-20T02:54:26;10.30;;;6.65;;
34573;SDS011;20809;49.594;8.734;2022-11-20T02:57:27;10.88;;;6.90;;
34573;SDS011;20809;49.594;8.734;2022-11-20T03:00:28;11.55;;;7.00;;
34573;SDS011;20809;49.594;8.734;2022-11-20T03:03:29;10.65;;;6.72;;
34573;SDS011;20809;49.594;8.734;2022-11-20T03:06:29;9.18;;;6.32;;
34573;SDS011;20809;49.594;8.734;2022-11-20T03:09:30;12.07;;;6.63;;
34573;SDS011;20809;49.594;8.734;2022-11-20T03:12:31;10.20;;;6.63;;
34573;SDS011;20809;49.594;8.734;2022-11-20T03:15:32;8.55;;;6.45;;
34573;SDS011;20809;49.594;8.734;2022-11-20T03:18:32;10.50;;;7.20;;
34573;SDS011;20809;49.594;8.734;2022-11-20T03:21:33;9.35;;;5.90;;
34573;SDS011;20809;49.594;8.734;2022-11-20T03:27:35;9.60;;;6.23;;
34573;SDS011;20809;49.594;8.734;2022-11-20T03:30:36;9.43;;;5.93;;
34573;SDS011;20809;49.594;8.734;2022-11-20T03:33:36;7.93;;;5.72;;
34573;SDS011;20809;49.594;8.734;2022-11-20T03:36:38;7.40;;;4.90;;
34573;SDS011;20809;49.594;8.734;2022-11-20T03:39:40;6.70;;;5.00;;
34573;SDS011;20809;49.594;8.734;2022-11-20T03:42:40;9.40;;;6.70;;
34573;SDS011;20809;49.594;8.734;2022-11-20T03:45:47;8.93;;;6.18;;
34573;SDS011;20809;49.594;8.734;2022-11-20T03:48:48;8.63;;;6.00;;
34573;SDS011;20809;49.594;8.734;2022-11-20T03:51:49;10.05;;;7.22;;
34573;SDS011;20809;49.594;8.734;2022-11-20T03:54:50;9.25;;;7.03;;
34573;SDS011;20809;49.594;8.734;2022-11-20T03:57:50;12.18;;;7.95;;
34573;SDS011;20809;49.594;8.734;2022-11-20T04:00:51;13.00;;;7.65;;
34573;SDS011;20809;49.594;8.734;2022-11-20T04:03:52;11.48;;;7.40;;
34573;SDS011;20809;49.594;8.734;2022-11-20T04:06:54;13.77;;;7.88;;
34573;SDS011;20809;49.594;8.734;2022-11-20T04:09:55;13.65;;;9.07;;
34573;SDS011;20809;49.594;8.734;2022-11-20T04:12:56;13.20;;;8.73;;
34573;SDS011;20809;49.594;8.734;2022-11-20T04:15:57;12.82;;;8.80;;
34573;SDS011;20809;49.594;8.734;2022-11-20T04:21:59;14.70;;;9.50;;
34573;SDS011;20809;49.594;8.734;2022-11-20T04:25:00;19.15;;;10.07;;
34573;SDS011;20809;49.594;8.734;2022-11-20T04:28:01;16.30;;;9.75;;
34573;SDS011;20809;49.594;8.734;2022-11-20T04:31:12;15.63;;;9.15;;
34573;SDS011;20809;49.594;8.734;2022-11-20T04:34:13;18.17;;;9.90;;
34573;SDS011;20809;49.594;8.734;2022-11-20T04:37:14;18.02;;;10.82;;
34573;SDS011;20809;49.594;8.734;2022-11-20T04:40:15;14.95;;;9.50;;
34573;SDS011;20809;49.594;8.734;2022-11-20T04:43:16;15.07;;;10.88;;
34573;SDS011;20809;49.594;8.734;2022-11-20T04:46:17;17.08;;;10.77;;
34573;SDS011;20809;49.594;8.734;2022-11-20T04:49:19;17.60;;;10.43;;
34573;SDS011;20809;49.594;8.734;2022-11-20T04:52:19;19.63;;;10.80;;
34573;SDS011;20809;49.594;8.734;2022-11-20T04:55:20;19.70;;;9.82;;
34573;SDS011;20809;49.594;8.734;2022-11-20T04:58:22;18.77;;;11.27;;
34573;SDS011;20809;49.594;8.734;2022-11-20T05:01:23;15.90;;;10.55;;
34573;SDS011;20809;49.594;8.734;2022-11-20T05:04:24;16.67;;;9.68;;
34573;SDS011;20809;49.594;8.734;2022-11-20T05:07:25;17.98;;;10.55;;
34573;SDS011;20809;49.594;8.734;2022-11-20T05:10:26;15.95;;;10.07;;
34573;SDS011;20809;49.594;8.734;2022-11-20T05:13:27;18.25;;;10.68;;
34573;SDS011;20809;49.594;8.734;2022-11-20T05:16:28;19.05;;;11.25;;
34573;SDS011;20809;49.594;8.734;2022-11-20T05:19:28;17.67;;;11.00;;
34573;SDS011;20809;49.594;8.734;2022-11-20T05:22:29;17.40;;;9.93;;
34573;SDS011;20809;49.594;8.734;2022-11-20T05:25:30;17.10;;;9.60;;
34573;SDS011;20809;49.594;8.734;2022-11-20T05:28:30;23.10;;;11.75;;
34573;SDS011;20809;49.594;8.734;2022-11-20T05:31:32;19.48;;;11.05;;
34573;SDS011;20809;49.594;8.734;2022-11-20T05:34:32;20.23;;;11.15;;
34573;SDS011;20809;49.594;8.734;2022-11-20T05:37:33;19.45;;;11.00;;
34573;SDS011;20809;49.594;8.734;2022-11-20T05:40:34;18.40;;;10.93;;
34573;SDS011;20809;49.594;8.734;2022-11-20T05:43:35;17.30;;;11.18;;
34573;SDS011;20809;49.594;8.734;2022-11-20T05:46:37;22.45;;;11.35;;
34573;SDS011;20809;49.594;8.734;2022-11-20T05:49:38;16.95;;;10.68;;
34573;SDS011;20809;49.594;8.734;2022-11-20T05:52:38;20.58;;;11.68;;
34573;SDS011;20809;49.594;8.734;2022-11-20T05:55:39;21.70;;;11.88;;
34573;SDS011;20809;49.594;8.734;2022-11-20T05:58:39;23.08;;;12.60;;
34573;SDS011;20809;49.594;8.734;2022-11-20T06:01:40;20.67;;;11.52;;
34573;SDS011;20809;49.594;8.734;2022-11-20T06:04:41;21.85;;;12.80;;
34573;SDS011;20809;49.594;8.734;2022-11-20T06:07:42;22.02;;;11.85;;
34573;SDS011;20809;49.594;8.734;2022-11-20T06:10:42;21.77;;;11.73;;
34573;SDS011;20809;49.594;8.734;2022-11-20T06:13:43;20.05;;;11.90;;
34573;SDS011;20809;49.594;8.734;2022-11-20T06:16:45;22.35;;;11.68;;
34573;SDS011;20809;49.594;8.734;2022-11-20T06:19:46;25.20;;;12.88;;
34573;SDS011;20809;49.594;8.734;2022-11-20T06:22:46;25.42;;;13.07;;
34573;SDS011;20809;49.594;8.734;2022-11-20T06:25:47;22.77;;;12.25;;
34573;SDS011;20809;49.594;8.734;2022-11-20T06:28:48;23.47;;;13.47;;
34573;SDS011;20809;49.594;8.734;2022-11-20T06:31:49;23.42;;;13.05;;
34573;SDS011;20809;49.594;8.734;2022-11-20T06:34:50;22.17;;;13.50;;
34573;SDS011;20809;49.594;8.734;2022-11-20T06:37:50;23.15;;;12.15;;
34573;SDS011;20809;49.594;8.734;2022-11-20T06:40:51;21.73;;;13.07;;
34573;SDS011;20809;49.594;8.734;2022-11-20T06:43:52;29.15;;;14.93;;
34573;SDS011;20809;49.594;8.734;2022-11-20T06:46:52;20.67;;;12.23;;
34573;SDS011;20809;49.594;8.734;2022-11-20T06:49:53;24.58;;;12.40;;
34573;SDS011;20809;49.594;8.734;2022-11-20T06:52:54;22.35;;;11.68;;
34573;SDS011;20809;49.594;8.734;2022-11-20T06:55:55;23.88;;;12.55;;
34573;SDS011;20809;49.594;8.734;2022-11-20T06:58:57;19.15;;;12.88;;
34573;SDS011;20809;49.594;8.734;2022-11-20T07:01:58;26.98;;;13.95;;
34573;SDS011;20809;49.594;8.734;2022-11-20T07:04:59;24.17;;;13.27;;
34573;SDS011;20809;49.594;8.734;2022-11-20T07:07:59;21.92;;;12.80;;
34573;SDS011;20809;49.594;8.734;2022-11-20T07:11:00;22.88;;;12.02;;
34573;SDS011;20809;49.594;8.734;2022-11-20T07:14:03;24.85;;;13.15;;
34573;SDS011;20809;49.594;8.734;2022-11-20T07:17:03;26.50;;;13.45;;
34573;SDS011;20809;49.594;8.734;2022-11-20T07:20:04;24.08;;;13.27;;
34573;SDS011;20809;49.594;8.734;2022-11-20T07:23:05;25.45;;;12.20;;
34573;SDS011;20809;49.594;8.734;2022-11-20T07:26:06;21.63;;;11.82;;
34573;SDS011;20809;49.594;8.734;2022-11-20T07:29:08;28.15;;;13.30;;
34573;SDS011;20809;49.594;8.734;2022-11-20T07:32:09;24.70;;;13.02;;
34573;SDS011;20809;49.594;8.734;2022-11-20T07:35:09;21.08;;;12.95;;
34573;SDS011;20809;49.594;8.734;2022-11-20T07:38:10;27.15;;;12.65;;
34573;SDS011;20809;49.594;8.734;2022-11-20T07:41:11;24.58;;;13.75;;
34573;SDS011;20809;49.594;8.734;2022-11-20T07:44:12;22.25;;;12.68;;
34573;SDS011;20809;49.594;8.734;2022-11-20T07:47:12;21.73;;;13.25;;
34573;SDS011;20809;49.594;8.734;2022-11-20T07:50:13;22.52;;;12.10;;
34573;SDS011;20809;49.594;8.734;2022-11-20T07:53:14;27.77;;;14.25;;
34573;SDS011;20809;49.594;8.734;2022-11-20T07:56:20;27.85;;;14.82;;
34573;SDS011;20809;49.594;8.734;2022-11-20T07:59:21;23.70;;;14.00;;
34573;SDS011;20809;49.594;8.734;2022-11-20T08:02:21;26.90;;;13.60;;
34573;SDS011;20809;49.594;8.734;2022-11-20T08:05:23;23.17;;;13.55;;
34573;SDS011;20809;49.594;8.734;2022-11-20T08:08:23;24.98;;;13.88;;
34573;SDS011;20809;49.594;8.734;2022-11-20T08:11:24;23.37;;;12.93;;
34573;SDS011;20809;49.594;8.734;2022-11-20T08:14:43;23.20;;;13.52;;
34573;SDS011;20809;49.594;8.734;2022-11-20T08:17:44;25.58;;;13.57;;
34573;SDS011;20809;49.594;8.734;2022-11-20T08:20:45;20.88;;;12.77;;
34573;SDS011;20809;49.594;8.734;2022-11-20T08:23:45;23.98;;;12.23;;
34573;SDS011;20809;49.594;8.734;2022-11-20T08:26:46;26.73;;;14.50;;
34573;SDS011;20809;49.594;8.734;2022-11-20T08:29:47;28.00;;;14.93;;
34573;SDS011;20809;49.594;8.734;2022-11-20T08:32:47;23.13;;;14.40;;
34573;SDS011;20809;49.594;8.734;2022-11-20T08:35:48;26.33;;;14.82;;
34573;SDS011;20809;49.594;8.734;2022-11-20T08:38:49;27.85;;;15.25;;
34573;SDS011;20809;49.594;8.734;2022-11-20T08:41:52;52.03;;;27.27;;
34573;SDS011;20809;49.594;8.734;2022-11-20T08:44:52;37.23;;;18.30;;
34573;SDS011;20809;49.594;8.734;2022-11-20T08:47:53;40.10;;;17.30;;
34573;SDS011;20809;49.594;8.734;2022-11-20T08:50:57;88.03;;;43.70;;
34573;SDS011;20809;49.594;8.734;2022-11-20T08:53:59;50.28;;;20.98;;
34573;SDS011;20809;49.594;8.734;2022-11-20T08:56:59;39.33;;;18.88;;
34573;SDS011;20809;49.594;8.734;2022-11-20T09:00:00;36.42;;;18.70;;
34573;SDS011;20809;49.594;8.734;2022-11-20T09:03:01;35.53;;;17.08;;
34573;SDS011;20809;49.594;8.734;2022-11-20T09:06:03;35.83;;;18.70;;
34573;SDS011;20809;49.594;8.734;2022-11-20T09:09:06;41.33;;;18.83;;
34573;SDS011;20809;49.594;8.734;2022-11-20T09:12:07;33.10;;;16.63;;
34573;SDS011;20809;49.594;8.734;2022-11-20T09:15:07;34.70;;;17.67;;
34573;SDS011;20809;49.594;8.734;2022-11-20T09:18:08;32.70;;;16.70;;
34573;SDS011;20809;49.594;8.734;2022-11-20T09:21:10;33.23;;;17.47;;
34573;SDS011;20809;49.594;8.734;2022-11-20T09:24:12;32.17;;;17.02;;
34573;SDS011;20809;49.594;8.734;2022-11-20T09:27:13;34.40;;;17.98;;
34573;SDS011;20809;49.594;8.734;2022-11-20T09:30:14;34.72;;;16.92;;
34573;SDS011;20809;49.594;8.734;2022-11-20T09:33:15;28.40;;;16.02;;
34573;SDS011;20809;49.594;8.734;2022-11-20T09:36:16;30.27;;;16.00;;
34573;SDS011;20809;49.594;8.734;2022-11-20T09:39:18;26.08;;;15.00;;
34573;SDS011;20809;49.594;8.734;2022-11-20T09:58:50;25.55;;;12.65;;
34573;SDS011;20809;49.594;8.734;2022-11-20T10:01:53;26.85;;;13.40;;
34573;SDS011;20809;49.594;8.734;2022-11-20T10:08:21;26.67;;;14.65;;
34573;SDS011;20809;49.594;8.734;2022-11-20T10:22:14;23.60;;;13.27;;
34573;SDS011;20809;49.594;8.734;2022-11-20T10:29:21;30.20;;;14.18;;
34573;SDS011;20809;49.594;8.734;2022-11-20T10:32:43;30.33;;;14.80;;
34573;SDS011;20809;49.594;8.734;2022-11-20T10:36:04;28.77;;;14.98;;
34573;SDS011;20809;49.594;8.734;2022-11-20T10:39:16;30.23;;;15.02;;
34573;SDS011;20809;49.594;8.734;2022-11-20T10:42:53;27.63;;;14.73;;
34573;SDS011;20809;49.594;8.734;2022-11-20T10:46:15;29.88;;;15.43;;
34573;SDS011;20809;49.594;8.734;2022-11-20T10:49:19;30.27;;;15.25;;
34573;SDS011;20809;49.594;8.734;2022-11-20T10:55:40;27.48;;;14.63;;
34573;SDS011;20809;49.594;8.734;2022-11-20T10:59:06;31.02;;;15.65;;
34573;SDS011;20809;49.594;8.734;2022-11-20T11:02:20;26.42;;;13.32;;
34573;SDS011;20809;49.594;8.734;2022-11-20T11:05:33;32.17;;;14.85;;
34573;SDS011;20809;49.594;8.734;2022-11-20T11:08:41;30.75;;;14.50;;
34573;SDS011;20809;49.594;8.734;2022-11-20T11:11:43;25.42;;;13.48;;
34573;SDS011;20809;49.594;8.734;2022-11-20T11:14:50;30.55;;;15.13;;
34573;SDS011;20809;49.594;8.734;2022-11-20T11:17:55;26.13;;;14.98;;
34573;SDS011;20809;49.594;8.734;2022-11-20T11:20:57;30.25;;;14.93;;
34573;SDS011;20809;49.594;8.734;2022-11-20T11:24:04;27.52;;;14.68;;
34573;SDS011;20809;49.594;8.734;2022-11-20T11:27:10;31.10;;;15.48;;
34573;SDS011;20809;49.594;8.734;2022-11-20T11:30:14;30.48;;;17.23;;
34573;SDS011;20809;49.594;8.734;2022-11-20T11:33:20;25.55;;;14.32;;
34573;SDS011;20809;49.594;8.734;2022-11-20T11:36:25;20.95;;;12.07;;
34573;SDS011;20809;49.594;8.734;2022-11-20T11:39:26;22.23;;;13.40;;
34573;SDS011;20809;49.594;8.734;2022-11-20T11:42:28;22.38;;;11.57;;
34573;SDS011;20809;49.594;8.734;2022-11-20T11:45:30;25.45;;;13.45;;
34573;SDS011;20809;49.594;8.734;2022-11-20T11:48:30;23.27;;;13.20;;
34573;SDS011;20809;49.594;8.734;2022-11-20T11:51:33;21.50;;;13.15;;
34573;SDS011;20809;49.594;8.734;2022-11-20T11:58:06;22.75;;;11.25;;
34573;SDS011;20809;49.594;8.734;2022-11-20T12:01:25;18.55;;;11.18;;
34573;SDS011;20809;49.594;8.734;2022-11-20T12:07:42;17.17;;;10.20;;
34573;SDS011;20809;49.594;8.734;2022-11-20T12:10:56;17.77;;;10.60;;
34573;SDS011;20809;49.594;8.734;2022-11-20T12:14:14;19.88;;;10.90;;
34573;SDS011;20809;49.594;8.734;2022-11-20T12:17:23;21.17;;;11.35;;
34573;SDS011;20809;49.594;8.734;2022-11-20T12:20:27;20.20;;;10.77;;
34573;SDS011;20809;49.594;8.734;2022-11-20T12:23:36;16.92;;;10.52;;
34573;SDS011;20809;49.594;8.734;2022-11-20T12:30:34;19.27;;;10.98;;
34573;SDS011;20809;49.594;8.734;2022-11-20T12:37:19;27.27;;;16.10;;
34573;SDS011;20809;49.594;8.734;2022-11-20T12:40:34;22.42;;;13.07;;
34573;SDS011;20809;49.594;8.734;2022-11-20T12:44:04;23.83;;;12.80;;
34573;SDS011;20809;49.594;8.734;2022-11-20T12:57:35;18.25;;;12.90;;
34573;SDS011;20809;49.594;8.734;2022-11-20T13:00:59;27.48;;;15.23;;
34573;SDS011;20809;49.594;8.734;2022-11-20T13:04:08;22.70;;;12.95;;
34573;SDS011;20809;49.594;8.734;2022-11-20T13:07:12;21.27;;;12.93;;
34573;SDS011;20809;49.594;8.734;2022-11-20T13:10:17;19.55;;;11.50;;
34573;SDS011;20809;49.594;8.734;2022-11-20T13:17:14;23.10;;;13.95;;
34573;SDS011;20809;49.594;8.734;2022-11-20T13:20:24;25.52;;;15.20;;
34573;SDS011;20809;49.594;8.734;2022-11-20T13:23:26;24.55;;;15.02;;
34573;SDS011;20809;49.594;8.734;2022-11-20T13:26:27;20.88;;;13.52;;
34573;SDS011;20809;49.594;8.734;2022-11-20T13:29:29;19.80;;;12.63;;
34573;SDS011;20809;49.594;8.734;2022-11-20T13:38:44;20.88;;;13.23;;
34573;SDS011;20809;49.594;8.734;2022-11-20T13:41:53;20.42;;;12.82;;
34573;SDS011;20809;49.594;8.734;2022-11-20T13:45:00;18.80;;;11.32;;
34573;SDS011;20809;49.594;8.734;2022-11-20T13:48:03;21.38;;;13.27;;
34573;SDS011;20809;49.594;8.734;2022-11-20T14:01:37;18.75;;;12.18;;
34573;SDS011;20809;49.594;8.734;2022-11-20T14:07:43;19.15;;;11.63;;
34573;SDS011;20809;49.594;8.734;2022-11-20T14:10:45;20.15;;;12.82;;
34573;SDS011;20809;49.594;8.734;2022-11-20T14:17:18;18.15;;;11.88;;
34573;SDS011;20809;49.594;8.734;2022-11-20T14:20:21;19.25;;;12.65;;
34573;SDS011;20809;49.594;8.734;2022-11-20T14:23:28;18.83;;;11.85;;
34573;SDS011;20809;49.594;8.734;2022-11-20T14:26:29;16.27;;;12.15;;
34573;SDS011;20809;49.594;8.734;2022-11-20T14:32:35;19.95;;;12.02;;
34573;SDS011;20809;49.594;8.734;2022-11-20T14:35:37;27.27;;;13.48;;
34573;SDS011;20809;49.594;8.734;2022-11-20T14:38:45;19.88;;;12.95;;
34573;SDS011;20809;49.594;8.734;2022-11-20T14:41:50;18.48;;;12.63;;
34573;SDS011;20809;49.594;8.734;2022-11-20T14:44:56;20.70;;;13.05;;
34573;SDS011;20809;49.594;8.734;2022-11-20T14:47:58;21.70;;;13.02;;
34573;SDS011;20809;49.594;8.734;2022-11-20T14:51:00;19.58;;;13.15;;
34573;SDS011;20809;49.594;8.734;2022-11-20T14:57:27;23.73;;;13.85;;
34573;SDS011;20809;49.594;8.734;2022-11-20T15:00:31;19.13;;;12.70;;
34573;SDS011;20809;49.594;8.734;2022-11-20T15:03:37;23.92;;;14.63;;
34573;SDS011;20809;49.594;8.734;2022-11-20T15:06:48;22.50;;;12.70;;
34573;SDS011;20809;49.594;8.734;2022-11-20T15:10:51;21.98;;;13.20;;
34573;SDS011;20809;49.594;8.734;2022-11-20T15:13:32;16.42;;;9.57;;
34573;SDS011;20809;49.594;8.734;2022-11-20T15:16:36;23.35;;;11.43;;
34573;SDS011;20809;49.594;8.734;2022-11-20T15:19:37;16.42;;;8.40;;
34573;SDS011;20809;49.594;8.734;2022-11-20T15:22:37;10.57;;;5.68;;
34573;SDS011;20809;49.594;8.734;2022-11-20T15:25:39;6.70;;;4.55;;
34573;SDS011;20809;49.594;8.734;2022-11-20T15:28:44;7.07;;;4.65;;
34573;SDS011;20809;49.594;8.734;2022-11-20T15:31:49;12.32;;;6.85;;
34573;SDS011;20809;49.594;8.734;2022-11-20T15:34:52;8.27;;;5.18;;
34573;SDS011;20809;49.594;8.734;2022-11-20T15:37:53;10.82;;;5.25;;
34573;SDS011;20809;49.594;8.734;2022-11-20T15:40:53;10.88;;;4.78;;
34573;SDS011;20809;49.594;8.734;2022-11-20T15:43:54;7.13;;;4.13;;
34573;SDS011;20809;49.594;8.734;2022-11-20T15:46:55;5.32;;;3.25;;
34573;SDS011;20809;49.594;8.734;2022-11-20T15:49:55;7.53;;;4.47;;
34573;SDS011;20809;49.594;8.734;2022-11-20T15:52:56;8.85;;;4.60;;
34573;SDS011;20809;49.594;8.734;2022-11-20T15:55:57;8.48;;;4.10;;
34573;SDS011;20809;49.594;8.734;2022-11-20T15:58:57;8.18;;;4.60;;
34573;SDS011;20809;49.594;8.734;2022-11-20T16:01:58;5.40;;;2.83;;
34573;SDS011;20809;49.594;8.734;2022-11-20T16:04:59;7.45;;;2.70;;
34573;SDS011;20809;49.594;8.734;2022-11-20T16:07:59;5.35;;;3.13;;
34573;SDS011;20809;49.594;8.734;2022-11-20T16:11:01;7.38;;;4.22;;
34573;SDS011;20809;49.594;8.734;2022-11-20T16:14:05;5.25;;;3.17;;
34573;SDS011;20809;49.594;8.734;2022-11-20T16:17:24;4.97;;;2.67;;
34573;SDS011;20809;49.594;8.734;2022-11-20T16:20:42;5.70;;;2.83;;
34573;SDS011;20809;49.594;8.734;2022-11-20T16:23:44;3.90;;;2.30;;
34573;SDS011;20809;49.594;8.734;2022-11-20T16:26:44;4.53;;;2.60;;
34573;SDS011;20809;49.594;8.734;2022-11-20T16:29:45;7.93;;;3.53;;
34573;SDS011;20809;49.594;8.734;2022-11-20T16:32:46;5.28;;;2.55;;
34573;SDS011;20809;49.594;8.734;2022-11-20T16:35:46;3.70;;;2.30;;
34573;SDS011;20809;49.594;8.734;2022-11-20T16:38:51;6.28;;;2.50;;
34573;SDS011;20809;49.594;8.734;2022-11-20T16:41:53;3.97;;;2.15;;
34573;SDS011;20809;49.594;8.734;2022-11-20T16:44:53;6.57;;;2.40;;
34573;SDS011;20809;49.594;8.734;2022-11-20T16:47:54;5.90;;;2.10;;
34573;SDS011;20809;49.594;8.734;2022-11-20T16:50:54;9.30;;;3.40;;
34573;SDS011;20809;49.594;8.734;2022-11-20T16:53:55;2.60;;;1.90;;
34573;SDS011;20809;49.594;8.734;2022-11-20T16:56:56;3.28;;;1.90;;
34573;SDS011;20809;49.594;8.734;2022-11-20T16:59:57;3.10;;;1.35;;
34573;SDS011;20809;49.594;8.734;2022-11-20T17:02:58;4.55;;;1.30;;
34573;SDS011;20809;49.594;8.734;2022-11-20T17:05:59;3.10;;;1.20;;
34573;SDS011;20809;49.594;8.734;2022-11-20T17:09:00;4.35;;;1.50;;
34573;SDS011;20809;49.594;8.734;2022-11-20T17:12:01;6.45;;;1.40;;
34573;SDS011;20809;49.594;8.734;2022-11-20T17:15:02;6.63;;;1.65;;
34573;SDS011;20809;49.594;8.734;2022-11-20T17:18:03;3.42;;;1.50;;
34573;SDS011;20809;49.594;8.734;2022-11-20T17:21:04;2.70;;;1.35;;
34573;SDS011;20809;49.594;8.734;2022-11-20T17:24:08;5.47;;;1.30;;
34573;SDS011;20809;49.594;8.734;2022-11-20T17:27:10;3.60;;;1.17;;
34573;SDS011;20809;49.594;8.734;2022-11-20T17:30:11;2.70;;;1.30;;
34573;SDS011;20809;49.594;8.734;2022-11-20T17:33:11;4.85;;;2.28;;
34573;SDS011;20809;49.594;8.734;2022-11-20T17:36:13;3.42;;;1.17;;
34573;SDS011;20809;49.594;8.734;2022-11-20T17:39:15;3.83;;;1.70;;
34573;SDS011;20809;49.594;8.734;2022-11-20T17:42:16;6.22;;;1.73;;
34573;SDS011;20809;49.594;8.734;2022-11-20T17:45:26;1.92;;;1.10;;
34573;SDS011;20809;49.594;8.734;2022-11-20T17:48:29;2.90;;;1.63;;
34573;SDS011;20809;49.594;8.734;2022-11-20T17:51:30;3.75;;;1.63;;
34573;SDS011;20809;49.594;8.734;2022-11-20T17:54:34;3.22;;;1.17;;
34573;SDS011;20809;49.594;8.734;2022-11-20T17:57:34;2.70;;;1.65;;
34573;SDS011;20809;49.594;8.734;2022-11-20T18:01:04;6.30;;;1.30;;
34573;SDS011;20809;49.594;8.734;2022-11-20T18:04:06;4.13;;;2.15;;
34573;SDS011;20809;49.594;8.734;2022-11-20T18:07:06;2.17;;;1.10;;
34573;SDS011;20809;49.594;8.734;2022-11-20T18:10:07;2.45;;;1.33;;
34573;SDS011;20809;49.594;8.734;2022-11-20T18:13:08;4.32;;;1.58;;
34573;SDS011;20809;49.594;8.734;2022-11-20T18:16:09;4.47;;;1.70;;
34573;SDS011;20809;49.594;8.734;2022-11-20T18:19:11;3.47;;;1.15;;
34573;SDS011;20809;49.594;8.734;2022-11-20T18:22:14;2.80;;;1.13;;
34573;SDS011;20809;49.594;8.734;2022-11-20T18:25:16;5.07;;;1.52;;
34573;SDS011;20809;49.594;8.734;2022-11-20T18:28:17;1.73;;;1.20;;
34573;SDS011;20809;49.594;8.734;2022-11-20T18:31:18;2.65;;;1.10;;
34573;SDS011;20809;49.594;8.734;2022-11-20T18:34:19;3.88;;;1.20;;
34573;SDS011;20809;49.594;8.734;2022-11-20T18:37:20;3.67;;;1.40;;
34573;SDS011;20809;49.594;8.734;2022-11-20T18:40:21;2.03;;;1.10;;
34573;SDS011;20809;49.594;8.734;2022-11-20T18:43:21;3.78;;;1.40;;
34573;SDS011;20809;49.594;8.734;2022-11-20T18:46:41;9.10;;;2.17;;
34573;SDS011;20809;49.594;8.734;2022-11-20T18:49:42;4.25;;;1.67;;
34573;SDS011;20809;49.594;8.734;2022-11-20T18:52:49;3.08;;;1.08;;
34573;SDS011;20809;49.594;8.734;2022-11-20T18:55:50;8.73;;;1.30;;
34573;SDS011;20809;49.594;8.734;2022-11-20T18:58:50;2.08;;;1.15;;
34573;SDS011;20809;49.594;8.734;2022-11-20T19:01:51;4.30;;;1.95;;
34573;SDS011;20809;49.594;8.734;2022-11-20T19:04:52;2.90;;;1.85;;
34573;SDS011;20809;49.594;8.734;2022-11-20T19:07:53;3.55;;;1.58;;
34573;SDS011;20809;49.594;8.734;2022-11-20T19:10:53;2.87;;;1.00;;
34573;SDS011;20809;49.594;8.734;2022-11-20T19:13:54;3.25;;;1.17;;
34573;SDS011;20809;49.594;8.734;2022-11-20T19:16:55;5.57;;;1.33;;
34573;SDS011;20809;49.594;8.734;2022-11-20T19:19:56;1.48;;;0.82;;
34573;SDS011;20809;49.594;8.734;2022-11-20T19:22:56;8.02;;;1.50;;
34573;SDS011;20809;49.594;8.734;2022-11-20T19:25:58;6.43;;;1.45;;
34573;SDS011;20809;49.594;8.734;2022-11-20T19:28:59;6.65;;;2.83;;
34573;SDS011;20809;49.594;8.734;2022-11-20T19:31:59;5.45;;;1.83;;
34573;SDS011;20809;49.594;8.734;2022-11-20T19:35:03;1.75;;;1.15;;
34573;SDS011;20809;49.594;8.734;2022-11-20T19:38:04;2.13;;;1.10;;
34573;SDS011;20809;49.594;8.734;2022-11-20T19:41:05;5.75;;;1.33;;
34573;SDS011;20809;49.594;8.734;2022-11-20T19:44:11;3.00;;;1.30;;
34573;SDS011;20809;49.594;8.734;2022-11-20T19:47:13;3.50;;;1.10;;
34573;SDS011;20809;49.594;8.734;2022-11-20T19:50:14;1.95;;;1.30;;
34573;SDS011;20809;49.594;8.734;2022-11-20T19:53:15;4.57;;;1.58;;